createdAt,value
2018-07-04T00:02:01.837Z,100084.00
2018-07-04T00:07:22.519Z,100095.00
2018-07-04T00:12:43.039Z,100097.00
2018-07-04T00:18:03.551Z,100094.00
2018-07-04T00:23:23.875Z,100100.00
2018-07-04T00:28:44.138Z,100108.00
2018-07-04T00:34:04.489Z,100093.00
2018-07-04T00:39:24.900Z,100100.00
2018-07-04T00:44:45.084Z,100102.00
2018-07-04T00:50:06.021Z,100098.00
2018-07-04T00:55:26.540Z,100091.00
2018-07-04T01:00:47.059Z,100091.00
2018-07-04T01:06:07.680Z,100090.00
2018-07-04T01:11:28.083Z,100089.00
2018-07-04T01:16:48.519Z,100092.00
2018-07-04T01:22:08.799Z,100085.00
2018-07-04T01:27:29.125Z,100078.00
2018-07-04T01:32:49.472Z,100083.00
2018-07-04T01:38:09.711Z,100074.00
2018-07-04T01:43:30.091Z,100068.00
2018-07-04T01:48:50.656Z,100068.00
2018-07-04T01:54:11.295Z,100076.00
2018-07-04T01:59:31.440Z,100077.00
2018-07-04T02:04:52.128Z,100075.00
2018-07-04T02:10:12.293Z,100077.00
2018-07-04T02:15:32.573Z,100074.00
2018-07-04T02:20:53.228Z,100073.00
2018-07-04T02:26:13.648Z,100065.00
2018-07-04T02:31:33.947Z,100069.00
2018-07-04T02:36:54.568Z,100084.00
2018-07-04T02:42:14.643Z,100074.00
2018-07-04T02:47:34.897Z,100075.00
2018-07-04T02:52:55.285Z,100066.00
2018-07-04T02:58:15.665Z,100067.00
2018-07-04T03:03:35.827Z,100080.00
2018-07-04T03:08:56.130Z,100078.00
2018-07-04T03:14:16.650Z,100070.00
2018-07-04T03:19:37.064Z,100065.00
2018-07-04T03:24:57.318Z,100069.00
2018-07-04T03:30:17.683Z,100064.00
2018-07-04T03:35:38.179Z,100053.00
2018-07-04T03:40:58.603Z,100048.00
2018-07-04T03:46:19.009Z,100055.00
2018-07-04T03:51:39.511Z,100066.00
2018-07-04T03:57:00.069Z,100062.00
2018-07-04T04:02:20.660Z,100075.00
2018-07-04T04:07:41.007Z,100079.00
2018-07-04T04:13:01.456Z,100080.00
2018-07-04T04:18:21.684Z,100090.00
2018-07-04T04:23:42.088Z,100095.00
2018-07-04T04:29:02.393Z,100091.00
2018-07-04T04:34:22.589Z,100105.00
2018-07-04T04:39:43.141Z,100110.00
2018-07-04T04:45:03.347Z,100116.00
2018-07-04T04:50:23.841Z,100131.00
2018-07-04T04:55:44.263Z,100132.00
2018-07-04T05:01:04.287Z,100129.00
2018-07-04T05:06:24.697Z,100137.00
2018-07-04T05:11:45.180Z,100130.00
2018-07-04T05:17:05.702Z,100125.00
2018-07-04T05:22:25.977Z,100120.00
2018-07-04T05:27:46.635Z,100135.00
2018-07-04T05:33:07.040Z,100121.00
2018-07-04T05:38:27.503Z,100137.00
2018-07-04T05:43:48.006Z,100131.00
2018-07-04T05:49:08.602Z,100129.00
2018-07-04T05:54:28.886Z,100135.00
2018-07-04T05:59:49.221Z,100137.00
2018-07-04T06:05:09.612Z,100147.00
2018-07-04T06:10:29.819Z,100139.00
2018-07-04T06:15:50.127Z,100146.00
2018-07-04T06:21:10.519Z,100151.00
2018-07-04T06:26:31.063Z,100156.00
2018-07-04T06:31:51.879Z,100160.00
2018-07-04T06:37:12.422Z,100171.00
2018-07-04T06:42:13.889Z,100164.00
2018-07-04T06:47:15.561Z,100176.00
2018-07-04T06:52:17.167Z,100172.00
2018-07-04T06:57:19.519Z,100187.00
2018-07-04T07:02:21.164Z,100189.00
2018-07-04T07:07:41.584Z,100192.00
2018-07-04T07:13:02.101Z,100184.00
2018-07-04T07:18:22.408Z,100182.00
2018-07-04T07:23:42.727Z,100187.00
2018-07-04T07:29:03.327Z,100188.00
2018-07-04T07:34:23.805Z,100193.00
2018-07-04T07:39:44.152Z,100191.00
2018-07-04T07:45:04.399Z,100193.00
2018-07-04T07:50:24.756Z,100182.00
2018-07-04T07:55:45.112Z,100184.00
2018-07-04T08:01:05.307Z,100184.00
2018-07-04T08:06:25.691Z,100193.00
2018-07-04T08:11:46.098Z,100189.00
2018-07-04T08:17:06.420Z,100188.00
2018-07-04T08:22:26.847Z,100191.00
2018-07-04T08:27:47.195Z,100194.00
2018-07-04T08:33:07.571Z,100200.00
2018-07-04T08:38:27.655Z,100207.00
2018-07-04T08:43:48.055Z,100208.00
2018-07-04T08:49:08.373Z,100206.00
2018-07-04T08:54:28.691Z,100196.00
2018-07-04T08:59:48.871Z,100202.00
2018-07-04T09:05:09.296Z,100199.00
2018-07-04T09:10:29.512Z,100221.00
2018-07-04T09:15:49.756Z,100215.00
2018-07-04T09:21:10.255Z,100218.00
2018-07-04T09:26:31.123Z,100231.00
2018-07-04T09:31:51.467Z,100232.00
2018-07-04T09:37:11.714Z,100225.00
2018-07-04T09:42:32.102Z,100227.00
2018-07-04T09:47:52.297Z,100228.00
2018-07-04T09:53:12.733Z,100226.00
2018-07-04T09:58:33.512Z,100225.00
2018-07-04T10:03:54.841Z,100224.00
2018-07-04T10:09:15.200Z,100227.00
2018-07-04T10:14:35.392Z,100218.00
2018-07-04T10:19:55.704Z,100213.00
2018-07-04T10:25:16.156Z,100210.00
2018-07-04T10:30:36.495Z,100201.00
2018-07-04T10:35:56.738Z,100199.00
2018-07-04T10:41:17.079Z,100192.00
2018-07-04T10:46:37.604Z,100183.00
2018-07-04T10:51:58.705Z,100181.00
2018-07-04T10:57:18.976Z,100180.00
2018-07-04T11:02:39.336Z,100167.00
2018-07-04T11:07:59.784Z,100170.00
2018-07-04T11:13:20.111Z,100166.00
2018-07-04T11:18:40.507Z,100163.00
2018-07-04T11:24:00.815Z,100161.00
2018-07-04T11:29:20.870Z,100165.00
2018-07-04T11:34:41.197Z,100142.00
2018-07-04T11:40:01.696Z,100140.00
2018-07-04T11:45:21.996Z,100128.00
2018-07-04T11:50:23.485Z,100108.00
2018-07-04T11:55:25.068Z,100117.00
2018-07-04T12:00:26.512Z,100116.00
2018-07-04T12:05:46.812Z,100103.00
2018-07-04T12:10:48.993Z,100109.00
2018-07-04T12:15:51.044Z,100098.00
2018-07-04T12:20:52.717Z,100090.00
2018-07-04T12:25:54.145Z,100083.00
2018-07-04T12:30:55.593Z,100083.00
2018-07-04T12:35:57.109Z,100110.00
2018-07-04T12:40:58.552Z,100104.00
2018-07-04T12:46:00.051Z,100102.00
2018-07-04T12:51:01.584Z,100092.00
2018-07-04T12:56:21.953Z,100105.00
2018-07-04T13:01:42.147Z,100114.00
2018-07-04T13:07:02.632Z,100132.00
2018-07-04T13:12:22.869Z,100137.00
2018-07-04T13:17:43.269Z,100136.00
2018-07-04T13:23:03.495Z,100137.00
2018-07-04T13:28:23.984Z,100130.00
2018-07-04T13:33:44.277Z,100133.00
2018-07-04T13:39:05.151Z,100133.00
2018-07-04T13:44:25.594Z,100123.00
2018-07-04T13:49:46.118Z,100113.00
2018-07-04T13:55:06.484Z,100091.00
2018-07-04T14:00:26.792Z,100080.00
2018-07-04T14:05:47.207Z,100054.00
2018-07-04T14:11:07.981Z,100059.00
2018-07-04T14:16:28.357Z,100048.00
2018-07-04T14:21:43.122Z,100032.00
2018-07-04T14:27:03.477Z,100017.00
2018-07-04T14:32:23.964Z,100021.00
2018-07-04T14:37:44.261Z,100023.00
2018-07-04T14:43:04.554Z,100017.00
2018-07-04T14:48:25.075Z,100031.00
2018-07-04T14:53:45.495Z,100035.00
2018-07-04T14:59:06.004Z,100048.00
2018-07-04T15:04:26.659Z,100059.00
2018-07-04T15:09:47.069Z,100073.00
2018-07-04T15:15:07.753Z,100063.00
2018-07-04T15:20:28.364Z,100057.00
2018-07-04T15:25:48.625Z,100064.00
2018-07-04T15:31:09.128Z,100082.00
2018-07-04T15:36:29.603Z,100079.00
2018-07-04T15:41:49.899Z,100077.00
2018-07-04T15:47:10.224Z,100066.00
2018-07-04T15:52:31.223Z,100063.00
2018-07-04T15:57:51.817Z,100055.00
2018-07-04T16:03:12.191Z,100074.00
2018-07-04T16:08:33.096Z,100057.00
2018-07-04T16:13:53.508Z,100045.00
2018-07-04T16:19:13.791Z,100023.00
2018-07-04T16:24:34.100Z,100022.00
2018-07-04T16:29:54.359Z,100040.00
2018-07-04T16:35:14.479Z,100027.00
2018-07-04T16:40:34.756Z,100006.00
2018-07-04T16:45:55.240Z,99987.00
2018-07-04T16:51:15.780Z,99975.00
2018-07-04T16:56:36.029Z,99957.00
2018-07-04T17:01:56.192Z,99934.00
2018-07-04T17:07:16.450Z,99916.00
2018-07-04T17:12:37.011Z,99884.00
2018-07-04T17:17:57.433Z,99882.00
2018-07-04T17:23:17.710Z,99876.00
2018-07-04T17:28:38.152Z,99883.00
2018-07-04T17:33:58.425Z,99920.00
2018-07-04T17:39:18.781Z,99890.00
2018-07-04T17:44:39.045Z,99906.00
2018-07-04T17:49:59.305Z,99945.00
2018-07-04T17:55:19.516Z,99964.00
2018-07-04T18:00:40.000Z,99993.00
2018-07-04T18:06:00.632Z,99999.00
2018-07-04T18:11:21.024Z,100004.00
2018-07-04T18:16:41.607Z,99988.00
2018-07-04T18:22:02.196Z,99987.00
2018-07-04T18:27:22.600Z,99980.00
2018-07-04T18:32:42.935Z,99998.00
2018-07-04T18:38:03.309Z,100010.00
2018-07-04T18:43:23.649Z,99996.00
2018-07-04T18:48:43.973Z,99991.00
2018-07-04T18:54:04.553Z,99994.00
2018-07-04T18:59:24.755Z,99992.00
2018-07-04T19:04:45.183Z,99995.00
2018-07-04T19:10:05.684Z,99993.00
2018-07-04T19:15:25.864Z,99996.00
2018-07-04T19:20:46.224Z,99988.00
2018-07-04T19:26:06.696Z,99995.00
2018-07-04T19:31:27.023Z,99995.00
2018-07-04T19:36:47.321Z,99991.00
2018-07-04T19:42:07.774Z,99967.00
2018-07-04T19:47:28.290Z,99961.00
2018-07-04T19:52:48.987Z,99975.00
2018-07-04T19:58:09.162Z,99980.00
2018-07-04T20:03:29.494Z,99984.00
2018-07-04T20:08:49.870Z,99999.00
2018-07-04T20:14:10.117Z,99999.00
2018-07-04T20:19:30.642Z,100008.00
2018-07-04T20:24:50.751Z,99990.00
2018-07-04T20:30:11.273Z,99998.00
2018-07-04T20:35:31.499Z,100012.00
2018-07-04T20:40:51.735Z,100006.00
2018-07-04T20:46:11.979Z,100005.00
2018-07-04T20:51:32.264Z,100011.00
2018-07-04T20:56:52.714Z,100002.00
2018-07-04T21:02:13.229Z,100015.00
2018-07-04T21:07:33.822Z,100018.00
2018-07-04T21:12:54.141Z,100018.00
2018-07-04T21:18:14.382Z,100015.00
2018-07-04T21:23:34.856Z,100017.00
2018-07-04T21:28:55.238Z,100011.00
2018-07-04T21:34:15.607Z,100002.00
2018-07-04T21:39:36.208Z,100002.00
2018-07-04T21:44:56.415Z,100005.00
2018-07-04T21:50:16.689Z,99988.00
2018-07-04T21:55:37.285Z,100000.00
2018-07-04T22:00:57.704Z,99997.00
2018-07-04T22:06:17.881Z,99998.00
2018-07-04T22:11:38.017Z,100011.00
2018-07-04T22:16:58.426Z,99991.00
2018-07-04T22:22:18.777Z,99985.00
2018-07-04T22:27:39.182Z,99979.00
2018-07-04T22:32:59.595Z,99982.00
2018-07-04T22:38:20.213Z,99969.00
2018-07-04T22:43:40.543Z,99968.00
2018-07-04T22:48:55.194Z,99982.00
2018-07-04T22:54:15.595Z,99996.00
2018-07-04T22:59:35.888Z,99975.00
2018-07-04T23:04:56.334Z,99989.00
2018-07-04T23:10:16.860Z,99978.00
2018-07-04T23:15:37.012Z,99971.00
2018-07-04T23:20:57.656Z,99961.00
2018-07-04T23:26:17.962Z,99962.00
2018-07-04T23:31:38.260Z,99966.00
2018-07-04T23:36:58.628Z,99965.00
2018-07-04T23:42:19.291Z,99966.00
2018-07-04T23:47:39.545Z,99958.00
2018-07-04T23:53:00.013Z,99959.00
2018-07-04T23:58:20.641Z,99955.00
